createdAt,value
2018-07-06T00:01:40.818Z,40.40
2018-07-06T00:04:27.366Z,40.40
2018-07-06T00:07:13.667Z,40.40
2018-07-06T00:09:59.966Z,40.50
2018-07-06T00:12:46.145Z,40.50
2018-07-06T00:15:32.388Z,40.50
2018-07-06T00:18:18.601Z,40.50
2018-07-06T00:21:04.844Z,40.50
2018-07-06T00:23:51.293Z,40.50
2018-07-06T00:26:37.738Z,40.60
2018-07-06T00:29:23.826Z,40.60
2018-07-06T00:32:10.011Z,40.60
2018-07-06T00:34:56.191Z,40.60
2018-07-06T00:37:42.469Z,40.60
2018-07-06T00:40:28.694Z,40.60
2018-07-06T00:43:15.105Z,40.70
2018-07-06T00:46:01.346Z,40.70
2018-07-06T00:48:47.541Z,40.60
2018-07-06T00:51:33.784Z,40.70
2018-07-06T00:57:00.311Z,41.30
2018-07-06T00:59:46.522Z,40.80
2018-07-06T01:02:39.156Z,40.80
2018-07-06T01:05:25.226Z,40.80
2018-07-06T01:08:11.419Z,40.80
2018-07-06T01:10:57.923Z,40.80
2018-07-06T01:13:44.279Z,40.80
2018-07-06T01:16:30.390Z,40.80
2018-07-06T01:19:16.575Z,40.80
2018-07-06T01:22:02.854Z,40.80
2018-07-06T01:24:49.063Z,40.90
2018-07-06T01:27:35.283Z,40.90
2018-07-06T01:30:21.482Z,40.90
2018-07-06T01:33:07.635Z,40.90
2018-07-06T01:35:53.864Z,40.90
2018-07-06T01:38:40.121Z,40.90
2018-07-06T01:41:26.266Z,40.90
2018-07-06T01:44:12.318Z,40.90
2018-07-06T01:49:38.566Z,41.00
2018-07-06T01:52:24.902Z,41.00
2018-07-06T01:55:11.174Z,41.00
2018-07-06T01:57:57.287Z,41.10
2018-07-06T02:00:43.508Z,41.00
2018-07-06T02:03:29.679Z,41.00
2018-07-06T02:06:15.835Z,41.10
2018-07-06T02:09:02.054Z,41.10
2018-07-06T02:11:48.378Z,41.10
2018-07-06T02:14:34.496Z,41.20
2018-07-06T02:17:20.847Z,41.20
2018-07-06T02:20:07.167Z,41.20
2018-07-06T02:22:53.215Z,41.20
2018-07-06T02:25:39.462Z,41.20
2018-07-06T02:28:25.678Z,41.20
2018-07-06T02:31:11.795Z,41.20
2018-07-06T02:33:58.003Z,41.20
2018-07-06T02:36:44.208Z,41.20
2018-07-06T02:39:30.407Z,41.20
2018-07-06T02:42:16.689Z,41.30
2018-07-06T02:45:02.862Z,41.30
2018-07-06T02:47:49.135Z,41.20
2018-07-06T02:50:35.466Z,41.30
2018-07-06T02:53:21.716Z,41.30
2018-07-06T02:56:08.080Z,41.40
2018-07-06T02:58:54.183Z,41.30
2018-07-06T03:01:40.525Z,41.30
2018-07-06T03:04:26.908Z,41.30
2018-07-06T03:07:13.265Z,41.30
2018-07-06T03:09:59.374Z,41.40
2018-07-06T03:12:45.719Z,41.00
2018-07-06T03:15:31.948Z,41.40
2018-07-06T03:18:18.188Z,41.40
2018-07-06T03:21:04.407Z,41.40
2018-07-06T03:26:30.912Z,41.50
2018-07-06T03:29:17.392Z,41.40
2018-07-06T03:32:03.635Z,41.40
2018-07-06T03:34:49.787Z,41.40
2018-07-06T03:37:36.282Z,41.40
2018-07-06T03:40:22.359Z,41.40
2018-07-06T03:43:08.778Z,41.50
2018-07-06T03:45:55.214Z,41.50
2018-07-06T03:48:41.582Z,41.40
2018-07-06T03:51:27.867Z,41.60
2018-07-06T03:54:14.014Z,41.60
2018-07-06T03:57:00.247Z,41.60
2018-07-06T03:59:46.428Z,41.60
2018-07-06T04:02:32.502Z,41.50
2018-07-06T04:05:18.719Z,41.50
2018-07-06T04:08:05.032Z,41.50
2018-07-06T04:10:51.199Z,41.50
2018-07-06T04:13:37.563Z,41.60
2018-07-06T04:16:23.755Z,41.60
2018-07-06T04:19:11.086Z,41.60
2018-07-06T04:21:57.586Z,41.60
2018-07-06T04:24:43.923Z,41.60
2018-07-06T04:27:30.143Z,41.60
2018-07-06T04:30:16.451Z,41.60
2018-07-06T04:33:02.639Z,41.60
2018-07-06T04:35:48.765Z,41.70
2018-07-06T04:38:34.943Z,41.70
2018-07-06T04:44:01.374Z,41.70
2018-07-06T04:46:47.529Z,41.70
2018-07-06T04:49:33.730Z,41.70
2018-07-06T04:52:19.974Z,41.70
2018-07-06T04:55:06.183Z,41.70
2018-07-06T04:57:52.354Z,41.70
2018-07-06T05:00:38.639Z,41.70
2018-07-06T05:03:24.988Z,41.70
2018-07-06T05:06:11.170Z,41.70
2018-07-06T05:08:57.365Z,41.70
2018-07-06T05:11:43.698Z,41.70
2018-07-06T05:17:10.158Z,41.80
2018-07-06T05:19:56.302Z,41.80
2018-07-06T05:22:42.730Z,41.80
2018-07-06T05:25:29.439Z,41.80
2018-07-06T05:28:15.566Z,41.80
2018-07-06T05:31:01.775Z,41.80
2018-07-06T05:33:47.822Z,41.80
2018-07-06T05:39:14.243Z,41.80
2018-07-06T05:42:00.362Z,41.80
2018-07-06T05:44:46.442Z,41.90
2018-07-06T05:47:32.566Z,41.90
2018-07-06T05:50:18.693Z,41.90
2018-07-06T05:53:05.054Z,42.80
2018-07-06T05:55:51.332Z,43.90
2018-07-06T05:58:37.606Z,44.30
2018-07-06T06:01:23.890Z,44.90
2018-07-06T06:04:10.339Z,45.10
2018-07-06T06:09:25.390Z,45.50
2018-07-06T06:14:22.784Z,45.20
2018-07-06T06:16:51.654Z,45.10
2018-07-06T06:19:20.509Z,45.10
2018-07-06T06:21:49.383Z,45.20
2018-07-06T06:24:18.237Z,45.30
2018-07-06T06:26:47.091Z,45.40
2018-07-06T06:29:16.008Z,45.50
2018-07-06T06:31:44.893Z,45.70
2018-07-06T06:34:44.443Z,45.50
2018-07-06T06:37:13.818Z,45.40
2018-07-06T06:39:42.679Z,45.80
2018-07-06T06:42:11.560Z,45.70
2018-07-06T06:44:40.489Z,45.60
2018-07-06T06:47:09.579Z,45.90
2018-07-06T06:49:38.471Z,46.00
2018-07-06T06:52:07.591Z,45.70
2018-07-06T06:54:36.493Z,45.10
2018-07-06T06:57:05.394Z,45.30
2018-07-06T06:59:34.285Z,45.20
2018-07-06T07:02:03.167Z,45.30
2018-07-06T07:04:32.030Z,45.50
2018-07-06T07:07:00.928Z,45.60
2018-07-06T07:09:29.923Z,45.80
2018-07-06T07:11:58.769Z,45.60
2018-07-06T07:16:56.164Z,46.00
2018-07-06T07:19:25.036Z,46.50
2018-07-06T07:21:53.934Z,46.40
2018-07-06T07:24:22.807Z,46.30
2018-07-06T07:26:51.718Z,46.20
2018-07-06T07:29:20.681Z,46.20
2018-07-06T07:31:49.558Z,46.30
2018-07-06T07:34:18.437Z,46.60
2018-07-06T07:36:47.290Z,46.70
2018-07-06T07:39:16.191Z,47.20
2018-07-06T07:41:45.023Z,47.40
2018-07-06T07:44:13.903Z,47.70
2018-07-06T07:46:42.763Z,47.50
2018-07-06T07:49:11.646Z,48.00
2018-07-06T07:51:54.986Z,48.10
2018-07-06T07:54:31.490Z,48.10
2018-07-06T07:57:01.145Z,48.40
2018-07-06T07:59:32.072Z,48.50
2018-07-06T08:02:01.612Z,48.50
2018-07-06T08:04:30.512Z,48.60
2018-07-06T08:06:59.366Z,48.30
2018-07-06T08:09:28.606Z,48.70
2018-07-06T08:11:58.785Z,49.10
2018-07-06T08:14:27.868Z,49.10
2018-07-06T08:16:56.830Z,49.10
2018-07-06T08:19:26.638Z,49.10
2018-07-06T08:21:55.502Z,48.80
2018-07-06T08:24:24.344Z,49.00
2018-07-06T08:26:53.222Z,48.90
2018-07-06T08:29:22.147Z,48.90
2018-07-06T08:31:51.046Z,48.70
2018-07-06T08:34:34.753Z,48.50
2018-07-06T08:40:05.842Z,48.30
2018-07-06T08:42:35.667Z,49.10
2018-07-06T08:45:04.874Z,48.20
2018-07-06T08:47:33.895Z,48.40
2018-07-06T08:50:03.386Z,48.60
2018-07-06T08:52:32.463Z,48.40
2018-07-06T08:55:01.347Z,47.70
2018-07-06T08:57:31.362Z,47.50
2018-07-06T09:00:00.258Z,46.90
2018-07-06T09:02:29.341Z,47.40
2018-07-06T09:04:59.170Z,47.10
2018-07-06T09:07:28.085Z,47.10
2018-07-06T09:09:57.678Z,47.00
2018-07-06T09:12:26.539Z,46.80
2018-07-06T09:14:55.854Z,46.90
2018-07-06T09:17:24.839Z,47.20
2018-07-06T09:19:55.568Z,46.90
2018-07-06T09:22:24.446Z,47.00
2018-07-06T09:24:55.623Z,46.60
2018-07-06T09:27:24.482Z,46.40
2018-07-06T09:29:53.474Z,46.30
2018-07-06T09:32:22.258Z,45.50
2018-07-06T09:34:51.138Z,45.30
2018-07-06T09:37:20.003Z,44.70
2018-07-06T09:39:49.740Z,44.40
2018-07-06T09:42:18.962Z,44.50
2018-07-06T09:44:47.859Z,44.50
2018-07-06T09:47:17.094Z,44.20
2018-07-06T09:49:45.971Z,44.10
2018-07-06T09:52:14.973Z,43.40
2018-07-06T09:54:43.820Z,43.30
2018-07-06T09:57:12.693Z,43.10
2018-07-06T09:59:41.611Z,43.30
2018-07-06T10:02:12.158Z,43.20
2018-07-06T10:04:48.532Z,43.30
2018-07-06T10:07:17.699Z,43.30
2018-07-06T10:09:46.628Z,43.30
2018-07-06T10:12:15.449Z,43.30
2018-07-06T10:14:48.509Z,43.00
2018-07-06T10:17:17.417Z,43.20
2018-07-06T10:19:46.311Z,42.80
2018-07-06T10:24:43.658Z,42.80
2018-07-06T10:27:12.481Z,42.60
2018-07-06T10:29:50.501Z,42.90
2018-07-06T10:32:21.950Z,42.80
2018-07-06T10:34:50.830Z,43.00
2018-07-06T10:37:21.191Z,42.90
2018-07-06T10:39:50.664Z,42.60
2018-07-06T10:42:21.392Z,42.30
2018-07-06T10:44:51.746Z,42.50
2018-07-06T10:47:20.602Z,41.70
2018-07-06T10:49:49.654Z,41.00
2018-07-06T10:52:18.502Z,41.30
2018-07-06T10:54:47.822Z,40.70
2018-07-06T10:57:16.675Z,40.80
2018-07-06T10:59:45.563Z,40.40
2018-07-06T11:02:15.303Z,40.10
2018-07-06T11:04:44.149Z,40.50
2018-07-06T11:07:14.050Z,40.80
2018-07-06T11:09:43.000Z,40.80
2018-07-06T11:12:11.885Z,41.00
2018-07-06T11:14:40.721Z,41.00
2018-07-06T11:17:09.561Z,41.00
2018-07-06T11:19:38.409Z,40.70
2018-07-06T11:22:07.305Z,41.20
2018-07-06T11:27:05.083Z,41.50
2018-07-06T11:29:34.009Z,41.30
2018-07-06T11:32:06.942Z,41.20
2018-07-06T11:34:36.027Z,41.10
2018-07-06T11:37:06.916Z,40.90
2018-07-06T11:39:39.549Z,40.80
2018-07-06T11:42:09.018Z,41.30
2018-07-06T11:44:37.875Z,41.30
2018-07-06T11:47:07.273Z,41.20
2018-07-06T11:49:36.338Z,41.40
2018-07-06T11:52:05.230Z,40.90
2018-07-06T11:54:34.082Z,41.00
2018-07-06T11:57:02.958Z,41.00
2018-07-06T11:59:31.816Z,40.60
2018-07-06T12:02:00.686Z,40.50
2018-07-06T12:04:29.582Z,40.40
2018-07-06T12:06:58.433Z,40.40
2018-07-06T12:09:27.307Z,39.60
2018-07-06T12:11:56.171Z,38.10
2018-07-06T12:14:25.020Z,38.30
2018-07-06T12:16:53.892Z,38.70
2018-07-06T12:19:22.762Z,38.80
2018-07-06T12:21:51.638Z,38.70
2018-07-06T12:24:20.603Z,39.10
2018-07-06T12:26:49.462Z,39.30
2018-07-06T12:29:18.318Z,39.30
2018-07-06T12:31:47.182Z,38.80
2018-07-06T12:34:16.058Z,37.80
2018-07-06T12:36:44.962Z,37.80
2018-07-06T12:39:13.733Z,36.70
2018-07-06T12:41:42.625Z,36.30
2018-07-06T12:44:11.557Z,37.30
2018-07-06T12:46:41.698Z,36.60
2018-07-06T12:49:10.568Z,37.40
2018-07-06T12:51:39.708Z,37.20
2018-07-06T12:54:08.538Z,37.50
2018-07-06T12:56:37.401Z,37.70
2018-07-06T13:01:35.120Z,37.60
2018-07-06T13:04:03.990Z,36.30
2018-07-06T13:06:32.843Z,35.70
2018-07-06T13:09:01.707Z,35.90
2018-07-06T13:11:30.563Z,36.60
2018-07-06T13:13:59.427Z,36.50
2018-07-06T13:16:28.279Z,36.70
2018-07-06T13:18:57.271Z,36.60
2018-07-06T13:21:26.179Z,36.60
2018-07-06T13:23:55.055Z,36.30
2018-07-06T13:26:23.906Z,36.50
2018-07-06T13:28:52.779Z,35.90
2018-07-06T13:33:50.289Z,35.50
2018-07-06T13:36:19.119Z,35.80
2018-07-06T13:38:47.974Z,35.60
2018-07-06T13:41:16.841Z,35.30
2018-07-06T13:43:45.716Z,34.00
2018-07-06T13:46:14.591Z,34.90
2018-07-06T13:48:43.468Z,34.50
2018-07-06T13:51:12.912Z,34.20
2018-07-06T13:53:41.869Z,33.90
2018-07-06T13:56:10.729Z,32.90
2018-07-06T13:58:39.604Z,30.80
2018-07-06T14:01:08.435Z,30.00
2018-07-06T14:03:37.507Z,31.10
2018-07-06T14:06:06.334Z,31.40
2018-07-06T14:08:35.475Z,31.70
2018-07-06T14:11:04.730Z,31.80
2018-07-06T14:16:02.279Z,33.00
2018-07-06T14:18:31.347Z,33.30
2018-07-06T14:21:00.202Z,32.20
2018-07-06T14:23:29.074Z,32.20
2018-07-06T14:28:26.715Z,31.80
2018-07-06T14:30:55.582Z,31.60
2018-07-06T14:33:26.028Z,31.50
2018-07-06T14:35:54.890Z,30.20
2018-07-06T14:38:23.757Z,30.30
2018-07-06T14:40:52.836Z,30.50
2018-07-06T14:43:21.652Z,31.10
2018-07-06T14:45:50.491Z,31.00
2018-07-06T14:48:19.330Z,30.80
2018-07-06T14:50:48.226Z,30.70
2018-07-06T14:53:17.123Z,30.00
2018-07-06T14:55:45.978Z,29.50
2018-07-06T15:00:43.374Z,29.10
2018-07-06T15:03:12.394Z,28.90
2018-07-06T15:05:41.271Z,29.30
2018-07-06T15:08:10.127Z,29.00
2018-07-06T15:10:39.158Z,28.70
2018-07-06T15:13:09.416Z,28.70
2018-07-06T15:15:38.819Z,28.70
2018-07-06T15:18:07.977Z,27.90
2018-07-06T15:20:38.390Z,27.90
2018-07-06T15:25:36.338Z,27.70
2018-07-06T15:30:33.978Z,27.40
2018-07-06T15:33:03.245Z,27.50
2018-07-06T15:35:33.193Z,27.50
2018-07-06T15:38:02.305Z,27.70
2018-07-06T15:40:31.421Z,27.00
2018-07-06T15:43:00.387Z,27.40
2018-07-06T15:45:29.308Z,27.10
2018-07-06T15:47:58.131Z,27.70
2018-07-06T15:50:26.990Z,27.50
2018-07-06T15:52:55.870Z,27.60
2018-07-06T15:57:54.045Z,27.60
2018-07-06T16:00:22.934Z,27.00
2018-07-06T16:02:51.799Z,27.60
2018-07-06T16:05:20.683Z,26.90
2018-07-06T16:07:49.538Z,27.00
2018-07-06T16:10:18.418Z,26.70
2018-07-06T16:12:47.298Z,26.70
2018-07-06T16:15:16.179Z,26.30
2018-07-06T16:17:45.030Z,27.20
2018-07-06T16:20:13.905Z,26.90
2018-07-06T16:22:42.758Z,26.50
2018-07-06T16:25:12.457Z,27.20
2018-07-06T16:30:09.935Z,28.40
2018-07-06T16:32:42.002Z,28.40
2018-07-06T16:35:10.881Z,28.50
2018-07-06T16:37:39.734Z,28.70
2018-07-06T16:40:08.615Z,29.30
2018-07-06T16:42:37.477Z,29.00
2018-07-06T16:45:06.375Z,29.20
2018-07-06T16:47:35.230Z,29.20
2018-07-06T16:50:04.120Z,29.20
2018-07-06T16:52:33.105Z,29.90
2018-07-06T16:55:01.955Z,29.60
2018-07-06T16:57:31.806Z,29.70
2018-07-06T17:00:00.695Z,29.70
2018-07-06T17:02:29.598Z,29.80
2018-07-06T17:04:58.573Z,30.00
2018-07-06T17:07:27.418Z,30.00
2018-07-06T17:09:56.311Z,30.00
2018-07-06T17:12:25.170Z,30.00
2018-07-06T17:17:22.630Z,30.30
2018-07-06T17:19:51.731Z,30.30
2018-07-06T17:22:20.558Z,30.30
2018-07-06T17:24:49.435Z,30.40
2018-07-06T17:27:18.307Z,30.40
2018-07-06T17:29:47.176Z,30.60
2018-07-06T17:32:16.154Z,30.60
2018-07-06T17:34:45.074Z,30.30
2018-07-06T17:37:13.947Z,30.00
2018-07-06T17:39:43.214Z,30.20
2018-07-06T17:42:12.087Z,30.40
2018-07-06T17:44:40.939Z,30.60
2018-07-06T17:47:09.816Z,30.70
2018-07-06T17:49:38.675Z,30.80
2018-07-06T17:52:07.567Z,30.90
2018-07-06T17:54:36.426Z,31.00
2018-07-06T17:57:06.015Z,31.10
2018-07-06T17:59:34.870Z,31.10
2018-07-06T18:02:03.744Z,31.20
2018-07-06T18:04:32.929Z,31.20
2018-07-06T18:07:01.804Z,31.30
2018-07-06T18:09:30.687Z,31.40
2018-07-06T18:11:59.594Z,31.30
2018-07-06T18:14:28.647Z,31.40
2018-07-06T18:16:57.522Z,31.40
2018-07-06T18:19:26.382Z,31.50
2018-07-06T18:21:55.263Z,31.50
2018-07-06T18:24:24.119Z,31.50
2018-07-06T18:29:21.590Z,31.50
2018-07-06T18:31:50.494Z,31.40
2018-07-06T18:34:19.351Z,31.50
2018-07-06T18:36:48.226Z,31.60
2018-07-06T18:39:17.082Z,31.50
2018-07-06T18:41:45.959Z,31.60
2018-07-06T18:44:14.813Z,31.60
2018-07-06T18:46:43.694Z,31.60
2018-07-06T18:49:12.658Z,31.60
2018-07-06T18:51:41.534Z,31.50
2018-07-06T18:54:10.406Z,31.70
2018-07-06T18:56:39.326Z,31.70
2018-07-06T18:59:08.184Z,32.00
2018-07-06T19:04:06.003Z,32.00
2018-07-06T19:06:34.874Z,32.10
2018-07-06T19:09:04.649Z,32.20
2018-07-06T19:11:33.706Z,32.20
2018-07-06T19:14:02.782Z,32.30
2018-07-06T19:16:31.655Z,32.40
2018-07-06T19:19:00.508Z,32.40
2018-07-06T19:21:29.379Z,32.50
2018-07-06T19:23:58.234Z,32.40
2018-07-06T19:26:27.109Z,32.50
2018-07-06T19:28:55.963Z,32.60
2018-07-06T19:31:24.841Z,32.60
2018-07-06T19:33:53.698Z,32.70
2018-07-06T19:36:22.566Z,32.60
2018-07-06T19:38:51.423Z,32.80
2018-07-06T19:41:20.302Z,32.80
2018-07-06T19:43:49.307Z,32.80
2018-07-06T19:46:18.135Z,32.90
2018-07-06T19:48:47.006Z,32.90
2018-07-06T19:51:15.861Z,32.90
2018-07-06T19:53:44.753Z,32.90
2018-07-06T19:56:13.610Z,33.10
2018-07-06T19:58:42.482Z,33.00
2018-07-06T20:01:11.336Z,33.10
2018-07-06T20:03:40.207Z,33.20
2018-07-06T20:06:09.086Z,33.30
2018-07-06T20:08:38.286Z,33.30
2018-07-06T20:11:07.147Z,33.30
2018-07-06T20:13:36.182Z,33.40
2018-07-06T20:16:05.142Z,33.50
2018-07-06T20:18:34.011Z,33.50
2018-07-06T20:21:02.866Z,34.00
2018-07-06T20:23:31.738Z,33.50
2018-07-06T20:26:00.591Z,33.50
2018-07-06T20:28:29.460Z,33.50
2018-07-06T20:33:27.046Z,33.70
2018-07-06T20:35:55.914Z,33.70
2018-07-06T20:38:24.788Z,33.80
2018-07-06T20:40:53.656Z,33.80
2018-07-06T20:43:22.526Z,33.90
2018-07-06T20:45:51.370Z,34.00
2018-07-06T20:48:20.248Z,33.90
2018-07-06T20:50:49.143Z,34.00
2018-07-06T20:53:18.003Z,34.00
2018-07-06T20:55:46.875Z,34.10
2018-07-06T20:58:15.750Z,34.10
2018-07-06T21:00:44.714Z,34.20
2018-07-06T21:03:13.578Z,34.20
2018-07-06T21:05:42.435Z,34.20
2018-07-06T21:08:11.326Z,34.20
2018-07-06T21:10:40.188Z,34.30
2018-07-06T21:13:09.222Z,34.40
2018-07-06T21:15:38.070Z,34.30
2018-07-06T21:18:06.947Z,34.50
2018-07-06T21:20:35.887Z,34.50
2018-07-06T21:23:04.808Z,34.50
2018-07-06T21:25:33.662Z,34.60
2018-07-06T21:28:02.535Z,34.60
2018-07-06T21:30:31.398Z,34.60
2018-07-06T21:33:00.274Z,34.70
2018-07-06T21:35:29.127Z,34.70
2018-07-06T21:37:57.994Z,34.70
2018-07-06T21:40:26.848Z,34.70
2018-07-06T21:42:55.726Z,34.80
2018-07-06T21:45:24.591Z,34.80
2018-07-06T21:47:53.479Z,34.90
2018-07-06T21:50:22.330Z,35.00
2018-07-06T21:52:51.227Z,35.00
2018-07-06T21:57:48.702Z,35.10
2018-07-06T22:00:23.537Z,35.00
2018-07-06T22:02:52.419Z,35.10
2018-07-06T22:07:49.787Z,35.10
2018-07-06T22:12:47.175Z,35.20
2018-07-06T22:17:44.576Z,35.20
2018-07-06T22:20:13.447Z,35.30
2018-07-06T22:22:42.372Z,35.30
2018-07-06T22:25:11.238Z,35.30
2018-07-06T22:27:40.090Z,35.30
2018-07-06T22:30:08.959Z,35.30
2018-07-06T22:32:37.810Z,35.40
2018-07-06T22:35:06.683Z,35.40
2018-07-06T22:37:35.538Z,35.40
2018-07-06T22:40:04.417Z,35.40
2018-07-06T22:42:33.270Z,35.40
2018-07-06T22:45:02.138Z,35.40
2018-07-06T22:47:30.991Z,35.50
2018-07-06T22:49:59.861Z,35.50
2018-07-06T22:52:28.732Z,35.50
2018-07-06T22:54:57.608Z,35.60
2018-07-06T22:57:26.462Z,35.60
2018-07-06T22:59:55.330Z,35.60
2018-07-06T23:02:24.187Z,35.60
2018-07-06T23:04:53.055Z,35.60
2018-07-06T23:07:21.902Z,35.70
2018-07-06T23:09:50.875Z,35.70
2018-07-06T23:12:19.726Z,35.70
2018-07-06T23:14:48.602Z,35.70
2018-07-06T23:19:46.197Z,35.70
2018-07-06T23:22:23.671Z,35.80
2018-07-06T23:24:52.543Z,35.80
2018-07-06T23:27:21.403Z,35.90
2018-07-06T23:29:50.278Z,35.90
2018-07-06T23:32:19.192Z,36.00
2018-07-06T23:34:48.006Z,36.00
2018-07-06T23:37:16.858Z,36.00
2018-07-06T23:39:45.734Z,36.00
2018-07-06T23:42:14.591Z,36.00
2018-07-06T23:47:11.976Z,36.00
2018-07-06T23:52:09.574Z,36.10
2018-07-06T23:54:38.516Z,36.10
2018-07-06T23:57:07.309Z,36.20
2018-07-06T23:59:36.178Z,36.20
